Clayton, Georgia
Current Conditions -  °F | °C
As of 1:55 AM on Friday 19 Dec 2014 (Local Time) from KTOC Reporting Station
Clear Clear  
Wind Chill:   Ceiling: Unl
Heat Index:   Visibility: 10mi
Dew Point:   Wind: 6mph
Humidity: 62%   Direction: 280°W
Pressure: 30.08"   Gusts: NA
Location:  34.88°N, 83.4°W
Report Text: KTOC 190655Z AUTO 28005KT 10SM CLR 07/00 A3008 RMK AO2 T00720003
Loading
Personal Weather Stations






























Interactive Weather Map New forecast layout! Learn more

10-Day Weather Forecast

Advertisements
Track Severe Weather on mobile